Data for 03/28/2008

Time Sea-Level Adjusted Pressure Absolute Pressure Temperature Relative Humidity Dew Point   
(mb) (inHg) (mb) (inHg) (C) (F) (%) (C) (F)
00:05 1019 30.09 848 25.04 -5.6 21.9 62 -11.8 10.7
00:10 1019 30.09 848 25.04 -5.5 22 61 -11.8 10.7
00:15 1019 30.09 848 25.04 -5.4 22.2 60 -11.9 10.5
00:20 1019 30.09 848 25.04 -5.3 22.4 60 -11.9 10.6
00:25 1019 30.09 848 25.04 -5.4 22.4 61 -11.8 10.7
00:30 1019 30.09 848 25.04 -5.7 21.8 61 -12.2 10.1
00:35 1019 30.09 848 25.04 -6.4 20.5 67 -11.6 11.1
00:40 1019 30.09 848 25.04 -6.7 19.9 68 -11.7 10.9
00:45 1019 30.09 848 25.04 -6.7 20 68 -11.6 11
00:50 1019 30.09 848 25.04 -6.8 19.7 67 -12 10.4
00:55 1019 30.09 848 25.04 -6.7 20 63 -12.6 9.2
01:00 1019 30.09 848 25.04 -6.4 20.5 59 -13.2 8.2
01:05 1019 30.09 848 25.04 -6.2 20.9 57 -13.4 7.9
01:10 1019 30.09 848 25.04 -6.1 20.9 54 -13.9 6.9
01:15 1019 30.09 848 25.04 -6.3 20.6 54 -14.2 6.4
01:20 1019 30.09 848 25.04 -6.6 20.2 55 -14.2 6.4
01:25 1019 30.09 848 25.04 -6.6 20.2 53 -14.6 5.7
01:30 1019 30.09 848 25.04 -6.4 20.4 53 -14.4 6
01:35 1019 30.09 848 25.04 -6.3 20.7 52 -14.7 5.5
01:40 1019 30.09 848 25.04 -6.1 21.1 50 -14.9 5.3
01:45 1019 30.09 848 25.04 -6 21.3 50 -14.8 5.3
01:50 1019 30.09 848 25.04 -6.1 21 50 -15 5
01:55 1019 30.09 848 25.04 -6.4 20.5 52 -14.6 5.7
02:00 1019 30.09 848 25.04 -6.8 19.8 52 -15 5
02:05 1019 30.09 848 25.04 -6.7 19.9 54 -14.6 5.7
02:10 1019 30.09 848 25.04 -7.2 19.1 54 -14.9 5.2
02:15 1019 30.09 848 25.04 -7.3 19 53 -15.2 4.6
02:20 1019 30.09 848 25.04 -7.1 19.2 54 -15.1 4.9
02:25 1019 30.09 848 25.04 -7.1 19.3 53 -15.2 4.7
02:30 1019 30.09 848 25.04 -7.1 19.3 53 -15.2 4.7
02:35 1019 30.09 848 25.04 -7.1 19.3 51 -15.7 3.8
02:40 1018 30.06 848 25.04 -7.3 19 54 -14.9 5.1
02:45 1018 30.06 848 25.04 -7.5 18.5 55 -15 5
02:50 1018 30.06 848 25.04 -7.6 18.4 55 -15.2 4.6
02:55 1018 30.06 848 25.04 -7.8 17.9 56 -15.2 4.7
03:00 1018 30.06 848 25.04 -8.1 17.5 56 -15.3 4.4
03:05 1018 30.06 848 25.04 -8.2 17.3 57 -15.2 4.6
03:10 1018 30.06 847 25.01 -8.5 16.6 58 -15.4 4.3
03:15 1018 30.06 847 25.01 -8.8 16.1 59 -15.4 4.3
03:20 1018 30.06 847 25.01 -9 15.9 60 -15.4 4.3
03:25 1018 30.06 847 25.01 -9 15.8 60 -15.3 4.4
03:30 1018 30.06 847 25.01 -9.1 15.7 62 -15.2 4.7
03:35 1018 30.06 847 25.01 -9.4 15.2 63 -15.1 4.9
03:40 1018 30.06 847 25.01 -9.4 15.1 62 -15.4 4.3
03:45 1018 30.06 847 25.01 -9.3 15.3 62 -15.2 4.6
03:50 1018 30.06 847 25.01 -9.6 14.7 63 -15.4 4.3
03:55 1018 30.06 847 25.01 -9.7 14.6 63 -15.4 4.2
04:00 1018 30.06 847 25.01 -9.7 14.6 63 -15.4 4.3
04:05 1018 30.06 847 25.01 -9.3 15.2 62 -15.4 4.3
04:10 1018 30.06 847 25.01 -9.1 15.6 60 -15.5 4.1
04:15 1018 30.06 847 25.01 -9.2 15.4 61 -15.3 4.4
04:20 1018 30.06 847 25.01 -9.4 15.1 62 -15.4 4.3
04:25 1018 30.06 847 25.01 -9.7 14.6 62 -15.6 3.9
04:30 1018 30.06 847 25.01 -9.9 14.2 63 -15.6 3.9
04:35 1018 30.06 847 25.01 -10 14.1 64 -15.6 3.9
04:40 1018 30.06 847 25.01 -10 14 64 -15.5 4.1
04:45 1018 30.06 847 25.01 -9.9 14.1 64 -15.5 4.1
04:50 1018 30.06 847 25.01 -9.8 14.3 63 -15.6 3.8
04:55 1018 30.06 847 25.01 -9.9 14.1 63 -15.8 3.6
05:00 1018 30.06 847 25.01 -10 14 62 -15.9 3.4
05:05 1018 30.06 847 25.01 -10 14 62 -16 3.3
05:10 1018 30.06 847 25.01 -10 14.1 61 -16.1 3.1
05:15 1018 30.06 847 25.01 -9.8 14.3 60 -16.1 3
05:20 1018 30.06 847 25.01 -10 14.1 61 -16.2 2.8
05:25 1018 30.06 847 25.01 -10.2 13.6 60 -16.5 2.3
05:30 1018 30.06 847 25.01 -10.3 13.4 61 -16.6 2.2
05:35 1018 30.06 847 25.01 -10.4 13.2 61 -16.6 2.1
05:40 1018 30.06 847 25.01 -10.7 12.7 62 -16.6 2
05:45 1018 30.06 847 25.01 -10.9 12.4 62 -16.8 1.8
05:50 1018 30.06 847 25.01 -10.9 12.3 62 -16.8 1.8
05:55 1017 30.03 847 25.01 -10.7 12.7 61 -16.8 1.8
06:00 1017 30.03 847 25.01 -10.6 12.9 61 -16.8 1.8
06:05 1017 30.03 847 25.01 -10.7 12.8 61 -16.9 1.7
06:10 1017 30.03 847 25.01 -10.7 12.8 60 -17 1.5
06:15 1017 30.03 847 25.01 -10.5 13.1 59 -17 1.4
06:20 1017 30.03 847 25.01 -10.5 13.1 59 -17 1.4
06:25 1017 30.03 847 25.01 -10.5 13.2 59 -17 1.4
06:30 1017 30.03 846 24.98 -10.5 13.2 59 -17 1.4
06:35 1017 30.03 847 25.01 -10.3 13.4 58 -17 1.4
06:40 1017 30.03 847 25.01 -10.5 13 59 -17.1 1.2
06:45 1017 30.03 847 25.01 -10.5 13.1 59 -17.1 1.2
06:50 1017 30.03 846 24.98 -10.4 13.3 58 -17.2 1
06:55 1017 30.03 846 24.98 -10.1 13.8 57 -17.1 1.2
07:00 1017 30.03 846 24.98 -9.9 14.1 56 -17.2 1.1
07:05 1017 30.03 846 24.98 -10 14.1 56 -17.2 1
07:10 1017 30.03 846 24.98 -10.1 13.8 56 -17.3 0.9
07:15 1017 30.03 846 24.98 -10.2 13.7 56 -17.3 0.8
07:20 1017 30.03 846 24.98 -10.2 13.6 57 -17.3 0.9
07:25 1017 30.03 846 24.98 -10.3 13.5 57 -17.2 1
07:30 1017 30.03 846 24.98 -10.3 13.4 58 -17.2 1.1
07:35 1017 30.03 846 24.98 -10.3 13.5 58 -17.1 1.2
07:40 1017 30.03 847 25.01 -10.3 13.5 58 -17 1.3
07:45 1017 30.03 847 25.01 -10.3 13.5 58 -17 1.5
07:50 1017 30.03 847 25.01 -10.3 13.4 59 -16.9 1.5
07:55 1017 30.03 846 24.98 -10.2 13.7 59 -16.8 1.8
08:00 1017 30.03 846 24.98 -9.9 14.1 58 -16.7 1.9
08:05 1017 30.03 846 24.98 -9.8 14.4 58 -16.6 2.1
08:10 1017 30.03 846 24.98 -9.6 14.8 57 -16.5 2.2
08:15 1017 30.03 846 24.98 -9.4 15.1 57 -16.5 2.3
08:20 1017 30.03 846 24.98 -9.2 15.4 56 -16.5 2.4
08:25 1017 30.03 846 24.98 -9.1 15.6 56 -16.3 2.6
08:30 1017 30.03 846 24.98 -8.8 16.1 55 -16.2 2.8
08:35 1017 30.03 846 24.98 -8.6 16.5 54 -16.2 2.8
08:40 1017 30.03 846 24.98 -8.4 17 54 -16.1 3
08:45 1017 30.03 846 24.98 -8.1 17.5 53 -16 3.1
08:50 1017 30.03 846 24.98 -7.9 17.7 53 -16 3.3
08:55 1017 30.03 846 24.98 -7.6 18.3 52 -16 3.3
09:00 1017 30.03 846 24.98 -7.3 18.9 51 -15.7 3.7
09:05 1017 30.03 846 24.98 -6.7 19.9 51 -15.4 4.3
09:10 1017 30.03 846 24.98 -6.2 20.8 49 -15.2 4.6
09:15 1017 30.03 846 24.98 -5.8 21.6 47 -15.3 4.4
09:20 1017 30.03 846 24.98 -5.7 21.8 46 -15.4 4.2
09:25 1017 30.03 846 24.98 -5.3 22.5 44 -15.6 3.8
09:30 1017 30.03 846 24.98 -5.3 22.5 45 -15.3 4.4
09:35 1017 30.03 846 24.98 -5 22.9 45 -15.4 4.4
09:40 1017 30.03 846 24.98 -5 23 45 -15.3 4.4
09:45 1017 30.03 846 24.98 -4.4 24.1 42 -15.5 4.1
09:50 1017 30.03 846 24.98 -4.1 24.7 41 -15.5 4
09:55 1017 30.03 846 24.98 -3.6 25.6 39 -15.5 4
10:00 1016 30 846 24.98 -3.1 26.5 37 -15.7 3.7
10:05 1016 30 846 24.98 -2.7 27.1 34 -16.4 2.4
10:10 1016 30 846 24.98 -3.2 26.2 35 -16.6 2.2
10:15 1016 30 846 24.98 -2.8 27 34 -16.6 2.1
10:20 1016 30 846 24.98 -3.5 25.8 37 -16.2 2.9
10:25 1016 30 845 24.95 -2.8 26.9 34 -16.6 2.1
10:30 1016 30 845 24.95 -2.7 27.2 35 -16.2 2.8
10:35 1016 30 845 24.95 -1.9 28.5 33 -16.4 2.5
10:40 1016 30 845 24.95 -2.4 27.7 33 -16.6 2.1
10:45 1016 30 845 24.95 -1.9 28.6 32 -16.5 2.4
10:50 1016 30 845 24.95 -1.1 30 31 -16.2 2.8
10:55 1016 30 845 24.95 -0.7 30.7 29 -16.7 1.9
11:00 1016 30 845 24.95 -1 30.1 30 -16.8 1.8
11:05 1016 30 845 24.95 -1.4 29.5 30 -16.7 1.9
11:10 1016 30 845 24.95 -0.7 30.8 30 -16.4 2.4
11:15 1016 30 845 24.95 -0 32 29 -16.2 2.8
11:20 1016 30 845 24.95 0.8 33.4 26 -16.6 2.2
11:25 1016 30 845 24.95 1.1 33.9 26 -16.5 2.3
11:30 1016 30 845 24.95 0.5 32.9 27 -16.5 2.3
11:35 1015 29.97 845 24.95 0.6 33.1 27 -16.3 2.6
11:40 1015 29.97 845 24.95 0.9 33.7 26 -16.5 2.2
11:45 1015 29.97 845 24.95 -0.2 31.7 28 -16.5 2.2
11:50 1015 29.97 844 24.92 -0.4 31.2 28 -17 1.3
11:55 1015 29.97 844 24.92 0.6 33 26 -17 1.3
12:00 1015 29.97 844 24.92 0.2 32.4 27 -16.6 2.1
12:05 1015 29.97 844 24.92 1 33.9 25 -16.7 1.9
12:10 1015 29.97 844 24.92 0.5 33 26 -17 1.4
12:15 1015 29.97 844 24.92 1.1 34 26 -16.6 2.1
12:20 1015 29.97 844 24.92 1.9 35.4 24 -16.6 2.1
12:25 1015 29.97 844 24.92 1.8 35.2 24 -16.7 2
12:30 1014 29.94 844 24.92 1.4 34.5 25 -16.4 2.5
12:35 1014 29.94 844 24.92 1 33.7 27 -16.1 3
12:40 1014 29.94 843 24.89 1.4 34.5 26 -16 3.1
12:45 1014 29.94 843 24.89 2.1 35.8 25 -16.1 3.1
12:50 1014 29.94 843 24.89 2.3 36.2 25 -16 3.2
12:55 1014 29.94 843 24.89 2.2 36 25 -16 3.2
13:00 1014 29.94 843 24.89 1 33.9 26 -16.6 2.1
13:05 1014 29.94 843 24.89 1.9 35.5 24 -16.6 2.2
13:10 1014 29.94 843 24.89 2.2 36 25 -16 3.1
13:15 1014 29.94 843 24.89 2.3 36.1 25 -16 3.3
13:20 1014 29.94 843 24.89 3.2 37.7 24 -15.8 3.5
13:25 1014 29.94 843 24.89 2.9 37.2 24 -15.7 3.7
13:30 1014 29.94 843 24.89 2 35.7 24 -16.6 2
13:35 1013 29.91 843 24.89 2.1 35.7 24 -16.5 2.2
13:40 1013 29.91 842 24.86 2.8 37.1 23 -16.3 2.7
13:45 1013 29.91 842 24.86 3.3 38 23 -16.1 2.9
13:50 1013 29.91 842 24.86 2.3 36.2 24 -16.3 2.7
13:55 1013 29.91 842 24.86 1.1 33.9 26 -16.6 2.1
14:00 1013 29.91 842 24.86 1.4 34.4 26 -16 3.1
14:05 1013 29.91 842 24.86 1.9 35.3 26 -15.9 3.4
14:10 1012 29.88 842 24.86 1.7 35 26 -15.9 3.5
14:15 1012 29.88 842 24.86 2.2 35.9 25 -15.8 3.6
14:20 1012 29.88 842 24.86 3.2 37.8 24 -15.6 3.9
14:25 1012 29.88 842 24.86 3.6 38.5 23 -15.5 4
14:30 1012 29.88 841 24.83 3.6 38.4 23 -15.9 3.3
14:35 1012 29.88 841 24.83 3.7 38.6 24 -15.4 4.3
14:40 1012 29.88 841 24.83 3.9 39.1 23 -15.6 3.9
14:45 1012 29.88 841 24.83 3.2 37.7 24 -15.6 3.9
14:50 1012 29.88 841 24.83 3.1 37.5 24 -15.8 3.5
14:55 1012 29.88 841 24.83 2.9 37.3 25 -15.5 4.2
15:00 1011 29.85 841 24.83 1.9 35.5 27 -15.4 4.2
15:05 1011 29.85 840 24.81 2 35.6 26 -15.7 3.7
15:10 1011 29.85 840 24.81 2.5 36.5 24 -16.2 2.8
15:15 1011 29.85 840 24.81 2.9 37.2 23 -16.1 3
15:20 1011 29.85 840 24.81 3 37.3 24 -15.8 3.5
15:25 1011 29.85 840 24.81 2.6 36.6 24 -16.1 3
15:30 1011 29.85 840 24.81 2.2 35.9 25 -16 3.2
15:35 1011 29.85 840 24.81 2.2 36 25 -16 3.1
15:40 1011 29.85 840 24.81 2.9 37.3 24 -15.8 3.5
15:45 1011 29.85 840 24.81 2.9 37.3 24 -16 3.1
15:50 1011 29.85 840 24.81 3.5 38.4 24 -15.4 4.4
15:55 1011 29.85 840 24.81 4.1 39.5 23 -15.4 4.4
16:00 1010 29.83 840 24.81 3.8 38.9 23 -15.6 4
16:05 1010 29.83 840 24.81 2.9 37.2 25 -15.5 4
16:10 1010 29.83 839 24.78 3.1 37.5 25 -15.2 4.7
16:15 1010 29.83 839 24.78 3.6 38.4 24 -15.1 4.9
16:20 1010 29.83 839 24.78 3.4 38.1 25 -14.9 5.2
16:25 1010 29.83 839 24.78 3.8 38.9 24 -15.1 4.8
16:30 1009 29.8 839 24.78 3.7 38.6 25 -14.8 5.4
16:35 1009 29.8 838 24.75 3.8 38.9 24 -15.3 4.5
16:40 1009 29.8 838 24.75 4.4 40 23 -15.1 4.9
16:45 1009 29.8 838 24.75 5.2 41.3 21 -15.2 4.6
16:50 1009 29.8 838 24.75 4.5 40.1 22 -15.5 4.1
16:55 1009 29.8 838 24.75 4.5 40 23 -15 5
17:00 1009 29.8 838 24.75 4.5 40.1 23 -15 5.1
17:05 1009 29.8 838 24.75 4.2 39.6 23 -15.4 4.3
17:10 1009 29.8 838 24.75 4.4 39.9 22 -15.4 4.3
17:15 1009 29.8 838 24.75 3.7 38.6 23 -15.7 3.7
17:20 1009 29.8 838 24.75 3.2 37.7 24 -15.8 3.6
17:25 1008 29.77 838 24.75 3.5 38.3 23 -15.6 3.9
17:30 1008 29.77 838 24.75 3.7 38.6 23 -15.6 3.9
17:35 1008 29.77 838 24.75 3.3 37.9 24 -15.7 3.8
17:40 1008 29.77 838 24.75 3.1 37.5 24 -15.7 3.7
17:45 1008 29.77 837 24.72 3.3 37.9 24 -15.4 4.2
17:50 1008 29.77 837 24.72 3.4 38.1 24 -15.4 4.2
17:55 1008 29.77 837 24.72 3.2 37.7 24 -15.6 4
18:00 1008 29.77 837 24.72 3.2 37.7 25 -15.2 4.6
18:05 1008 29.77 837 24.72 3.4 38.2 24 -15.3 4.4
18:10 1008 29.77 837 24.72 3.1 37.5 26 -14.5 5.8
18:15 1008 29.77 837 24.72 2.6 36.6 28 -14.1 6.5
18:20 1008 29.77 837 24.72 2.3 36.1 28 -14.4 6.1
18:25 1008 29.77 837 24.72 2 35.5 28 -14.7 5.6
18:30 1008 29.77 837 24.72 1.9 35.4 29 -14.3 6.3
18:35 1008 29.77 837 24.72 1.9 35.5 30 -14 6.9
18:40 1008 29.77 837 24.72 1.9 35.4 31 -13.6 7.5
18:45 1008 29.77 837 24.72 1.9 35.4 32 -13.4 8
18:50 1008 29.77 837 24.72 1.8 35.2 32 -13.3 8
18:55 1008 29.77 837 24.72 1.8 35.2 32 -13.4 7.8
19:00 1007 29.74 837 24.72 1.7 35.1 32 -13.3 8
19:05 1007 29.74 837 24.72 1.7 35.1 32 -13.4 7.8
19:10 1007 29.74 837 24.72 1.8 35.2 31 -13.5 7.6
19:15 1007 29.74 836 24.69 1.8 35.2 32 -13.3 8
19:20 1007 29.74 837 24.72 1.9 35.4 32 -13.1 8.5
19:25 1007 29.74 836 24.69 1.8 35.3 31 -13.5 7.8
19:30 1007 29.74 836 24.69 1.7 35.1 33 -13 8.5
19:35 1007 29.74 836 24.69 1.7 35.1 32 -13.2 8.2
19:40 1007 29.74 836 24.69 1.9 35.4 31 -13.7 7.4
19:45 1007 29.74 836 24.69 1.8 35.2 30 -13.8 7.1
19:50 1007 29.74 836 24.69 2 35.6 34 -12.2 10.1
19:55 1007 29.74 836 24.69 2.2 35.9 32 -12.8 9
20:00 1007 29.74 836 24.69 2 35.6 33 -12.5 9.5
20:05 1007 29.74 836 24.69 2.2 35.9 38 -10.8 12.6
20:10 1007 29.74 836 24.69 2.1 35.9 41 -9.9 14.2
20:15 1007 29.74 836 24.69 2 35.6 42 -9.5 14.9
20:20 1007 29.74 836 24.69 1.8 35.3 42 -9.7 14.6
20:25 1007 29.74 836 24.69 1.8 35.3 43 -9.6 14.8
20:30 1007 29.74 836 24.69 1.8 35.3 43 -9.4 15.1
20:35 1007 29.74 836 24.69 1.9 35.3 44 -9.1 15.7
20:40 1006 29.71 836 24.69 1.8 35.3 44 -9 15.7
20:45 1006 29.71 836 24.69 1.7 35 46 -8.7 16.4
20:50 1006 29.71 836 24.69 1.5 34.7 49 -8.1 17.4
20:55 1006 29.71 836 24.69 1.4 34.5 48 -8.5 16.7
21:00 1006 29.71 835 24.66 1.6 34.9 46 -8.7 16.3
21:05 1006 29.71 835 24.66 1.4 34.6 46 -8.9 16
21:10 1006 29.71 835 24.66 1.4 34.4 47 -8.9 16
21:15 1006 29.71 835 24.66 1.3 34.4 46 -9 15.8
21:20 1006 29.71 835 24.66 1.2 34.2 46 -9.2 15.5
21:25 1006 29.71 835 24.66 1.1 33.9 46 -9.4 15
21:30 1006 29.71 835 24.66 0.9 33.6 45 -9.6 14.6
21:35 1005 29.68 835 24.66 0.8 33.5 46 -9.6 14.7
21:40 1005 29.68 834 24.63 0.8 33.4 47 -9.3 15.2
21:45 1005 29.68 834 24.63 0.7 33.3 49 -8.9 16
21:50 1005 29.68 834 24.63 0.7 33.2 50 -8.6 16.5
21:55 1005 29.68 834 24.63 0.6 33.1 51 -8.4 16.9
22:00 1005 29.68 834 24.63 0.6 33.1 52 -8.1 17.4
22:05 1005 29.68 834 24.63 0.6 33 53 -8 17.7
22:10 1005 29.68 834 24.63 0.5 33 53 -7.9 17.8
22:15 1005 29.68 834 24.63 0.5 33 53 -7.8 17.9
22:20 1005 29.68 834 24.63 0.6 33.1 54 -7.8 18
22:25 1005 29.68 834 24.63 0.6 33.2 54 -7.7 18.1
22:30 1004 29.65 833 24.6 0.6 33.2 53 -7.9 17.8
22:35 1004 29.65 833 24.6 0.7 33.3 52 -8.1 17.5
22:40 1004 29.65 833 24.6 0.8 33.4 52 -8.1 17.4
22:45 1004 29.65 833 24.6 0.8 33.4 52 -8 17.7
22:50 1004 29.65 833 24.6 0.8 33.4 52 -8 17.6
22:55 1004 29.65 833 24.6 0.8 33.5 52 -7.9 17.8
23:00 1003 29.62 833 24.6 0.9 33.6 52 -7.9 17.8
23:05 1003 29.62 833 24.6 0.9 33.6 52 -7.8 17.9
23:10 1003 29.62 832 24.57 0.8 33.5 53 -7.6 18.2
23:15 1003 29.62 832 24.57 0.7 33.3 54 -7.5 18.6
23:20 1003 29.62 832 24.57 0.6 33.1 56 -7.2 19.1
23:25 1003 29.62 832 24.57 0.5 33 57 -7.1 19.2
23:30 1003 29.62 832 24.57 0.6 33.1 57 -7 19.4
23:35 1003 29.62 832 24.57 0.6 33.1 56 -7.1 19.2
23:40 1002 29.59 832 24.57 0.7 33.3 57 -6.8 19.7
23:45 1002 29.59 832 24.57 0.6 33.2 59 -6.5 20.3
23:50 1002 29.59 831 24.54 0.5 32.8 60 -6.4 20.5
23:55 1002 29.59 831 24.54 0.4 32.7 62 -6.1 20.9
24:00 1002 29.59 831 24.54 0.3 32.5 62 -6.1 21.1